Time;durP1;ratioP1;P1;durP2;ratioP2;P2;SDS_P1;SDS_P2;PMS_P1;PMS_P2;Temp;Humidity;BMP_temperature;BMP_pressure;BME280_temperature;BME280_humidity;BME280_pressure;Samples;Min_cycle;Max_cycle;Signal;HPM_P1;HPM_P2
2023/08/17 00:02:42;;;;;;;1.35;1.02;;;;;;;21.65;100.00;100316.47;10299989;28;20707;-52
2023/08/17 00:07:43;;;;;;;1.38;0.95;;;;;;;21.66;100.00;100314.59;10297219;28;20061;-53
2023/08/17 00:12:45;;;;;;;2.22;1.30;;;;;;;21.64;100.00;100316.66;10304662;28;20058;-53
2023/08/17 00:17:46;;;;;;;5.72;2.55;;;;;;;21.60;100.00;100310.78;10304800;28;20065;-53
2023/08/17 00:22:48;;;;;;;2.42;1.30;;;;;;;21.57;100.00;100303.03;10299963;28;20124;-53
2023/08/17 00:27:49;;;;;;;2.05;1.52;;;;;;;21.57;100.00;100303.03;10308073;28;20054;-53
2023/08/17 00:32:50;;;;;;;4.15;1.77;;;;;;;21.56;100.00;100301.41;10307418;28;20482;-53
2023/08/17 00:37:52;;;;;;;2.72;1.40;;;;;;;21.53;100.00;100302.63;10304969;28;20050;-53
2023/08/17 00:42:53;;;;;;;3.20;1.13;;;;;;;21.49;100.00;100285.03;10291309;28;20078;-53
2023/08/17 00:47:57;;;;;;;3.13;1.58;;;;;;;21.48;100.00;100288.78;10307355;28;20100;-53
2023/08/17 00:52:59;;;;;;;3.20;1.45;;;;;;;21.44;100.00;100287.50;10304663;28;20145;-53
2023/08/17 00:58:00;;;;;;;4.80;1.77;;;;;;;21.44;100.00;100292.06;10291106;28;20046;-54
2023/08/17 01:03:02;;;;;;;6.80;2.45;;;;;;;21.37;100.00;100297.41;10303833;28;20267;-54
2023/08/17 01:08:04;;;;;;;2.75;2.20;;;;;;;21.33;100.00;100301.53;10305976;28;20041;-55
2023/08/17 01:13:15;;;;;;;3.00;1.80;;;;;;;21.31;100.00;100299.03;10302517;28;20058;-53
2023/08/17 01:18:26;;;;;;;2.55;2.05;;;;;;;21.25;100.00;100293.56;10297772;28;20273;-54
2023/08/17 01:23:28;;;;;;;4.85;2.47;;;;;;;21.23;100.00;100290.19;10302418;28;20050;-54
2023/08/17 01:28:30;;;;;;;3.63;2.30;;;;;;;21.18;100.00;100288.06;10302707;28;20061;-55
2023/08/17 01:33:37;;;;;;;4.45;2.63;;;;;;;21.17;100.00;100281.00;10302074;28;20052;-53
2023/08/17 01:38:40;;;;;;;4.13;2.10;;;;;;;21.14;100.00;100276.78;10303250;28;20547;-56
2023/08/17 01:43:45;;;;;;;4.68;2.47;;;;;;;21.14;100.00;100271.38;10301674;28;20700;-54
2023/08/17 01:48:48;;;;;;;2.72;2.25;;;;;;;21.11;100.00;100277.19;10299336;28;20089;-53
2023/08/17 01:53:50;;;;;;;3.70;2.65;;;;;;;21.09;100.00;100265.72;10302425;28;20145;-54
2023/08/17 01:58:51;;;;;;;5.32;3.22;;;;;;;21.09;100.00;100268.44;10301578;28;20051;-54
2023/08/17 02:03:53;;;;;;;3.58;2.65;;;;;;;21.08;100.00;100264.03;10298674;28;20228;-54
2023/08/17 02:08:54;;;;;;;2.83;2.53;;;;;;;21.04;100.00;100257.31;10304193;28;21154;-55
2023/08/17 02:13:56;;;;;;;8.32;3.53;;;;;;;21.00;100.00;100264.13;10303766;28;22738;-54
2023/08/17 02:18:57;;;;;;;4.43;3.05;;;;;;;20.99;100.00;100268.72;10302475;28;20495;-56
2023/08/17 02:23:59;;;;;;;3.50;2.97;;;;;;;20.98;100.00;100264.34;10301941;28;20061;-53
2023/08/17 02:29:00;;;;;;;3.35;3.05;;;;;;;20.96;100.00;100269.09;10304080;28;20128;-53
2023/08/17 02:34:04;;;;;;;4.88;2.85;;;;;;;20.96;100.00;100263.69;10298653;28;20534;-54
2023/08/17 02:39:06;;;;;;;3.28;2.70;;;;;;;20.96;100.00;100254.75;10284406;28;20535;-54
2023/08/17 02:44:08;;;;;;;4.95;2.67;;;;;;;20.96;100.00;100246.63;10303972;28;20762;-53
2023/08/17 02:49:09;;;;;;;3.53;2.00;;;;;;;20.94;100.00;100254.94;10298215;28;20072;-54
2023/08/17 02:54:11;;;;;;;2.53;2.13;;;;;;;20.94;100.00;100243.25;10299303;28;20107;-54
2023/08/17 02:59:12;;;;;;;2.42;1.63;;;;;;;20.91;100.00;100243.66;10302122;28;20054;-54
2023/08/17 03:04:14;;;;;;;2.42;2.13;;;;;;;20.90;100.00;100233.88;10299849;28;20076;-53
2023/08/17 03:09:15;;;;;;;3.28;1.63;;;;;;;20.88;100.00;100234.03;10286708;28;20050;-54
2023/08/17 03:14:17;;;;;;;3.05;1.45;;;;;;;20.86;100.00;100229.88;10304445;28;20057;-54
2023/08/17 03:19:19;;;;;;;3.58;1.58;;;;;;;20.82;100.00;100227.56;10306344;28;20869;-54
2023/08/17 03:24:20;;;;;;;1.70;1.20;;;;;;;20.81;100.00;100230.44;10306674;28;20486;-54
2023/08/17 03:29:21;;;;;;;2.40;1.40;;;;;;;20.81;100.00;100233.16;10303558;28;20057;-54
2023/08/17 03:34:23;;;;;;;3.67;2.05;;;;;;;20.77;100.00;100243.50;10303471;28;20140;-54
2023/08/17 03:39:24;;;;;;;2.70;1.90;;;;;;;20.71;100.00;100238.03;10303380;28;20630;-54
2023/08/17 03:44:26;;;;;;;4.97;2.83;;;;;;;20.67;100.00;100242.97;10304637;28;20058;-53
2023/08/17 03:49:28;;;;;;;2.63;1.90;;;;;;;20.60;100.00;100242.88;10309134;28;20065;-54
2023/08/17 03:54:29;;;;;;;4.13;1.67;;;;;;;20.57;100.00;100240.53;10304205;28;20058;-53
2023/08/17 03:59:31;;;;;;;3.10;2.50;;;;;;;20.58;100.00;100239.53;10306907;28;20623;-54
2023/08/17 04:04:33;;;;;;;2.13;1.90;;;;;;;20.57;100.00;100247.81;10305129;28;20451;-52
2023/08/17 04:09:34;;;;;;;2.75;1.60;;;;;;;20.58;100.00;100249.47;10297733;28;20054;-54
2023/08/17 04:14:36;;;;;;;2.80;1.70;;;;;;;20.55;100.00;100247.16;10302863;28;20061;-54
2023/08/17 04:19:40;;;;;;;2.10;1.67;;;;;;;20.60;100.00;100263.66;10308791;28;20050;-54
2023/08/17 04:24:41;;;;;;;2.53;1.63;;;;;;;20.57;100.00;100269.47;10304323;28;20135;-54
2023/08/17 04:29:43;;;;;;;2.20;1.42;;;;;;;20.53;100.00;100274.38;10308732;28;20081;-56
2023/08/17 04:34:45;;;;;;;2.65;1.70;;;;;;;20.51;100.00;100279.16;10304831;28;20065;-55
2023/08/17 04:39:48;;;;;;;3.00;2.15;;;;;;;20.49;100.00;100284.75;10306099;28;20061;-55
2023/08/17 04:44:50;;;;;;;3.30;2.53;;;;;;;20.51;100.00;100281.00;10306883;28;20072;-55
2023/08/17 04:49:52;;;;;;;3.33;3.03;;;;;;;20.48;100.00;100277.66;10309985;28;20502;-56
2023/08/17 04:54:53;;;;;;;2.85;2.63;;;;;;;20.47;100.00;100285.94;10308956;28;20123;-54
2023/08/17 04:59:55;;;;;;;4.43;2.70;;;;;;;20.46;100.00;100285.13;10304747;28;20054;-54
2023/08/17 05:04:56;;;;;;;2.60;2.40;;;;;;;20.39;100.00;100278.78;10306336;28;20057;-54
2023/08/17 05:09:57;;;;;;;2.60;2.17;;;;;;;20.42;100.00;100291.94;10313588;28;20663;-54
2023/08/17 05:14:59;;;;;;;3.10;2.58;;;;;;;20.40;100.00;100307.50;10301917;28;20698;-55
2023/08/17 05:20:00;;;;;;;2.67;2.30;;;;;;;20.44;100.00;100297.97;10291459;28;20049;-55
2023/08/17 05:25:03;;;;;;;3.22;2.92;;;;;;;20.47;100.00;100292.19;10298611;28;20050;-55
2023/08/17 05:30:05;;;;;;;4.43;3.20;;;;;;;20.47;100.00;100296.78;10302941;28;20521;-56
2023/08/17 05:35:07;;;;;;;4.10;2.93;;;;;;;20.48;100.00;100298.44;10302843;28;20084;-55
2023/08/17 05:40:10;;;;;;;4.05;3.05;;;;;;;20.46;100.00;100301.34;10303265;28;20132;-55
2023/08/17 05:45:12;;;;;;;3.70;2.80;;;;;;;20.38;100.00;100301.44;10303838;28;20129;-56
2023/08/17 05:50:13;;;;;;;3.60;3.10;;;;;;;20.39;100.00;100305.81;10304802;28;20050;-56
2023/08/17 05:55:15;;;;;;;3.63;3.33;;;;;;;20.40;100.00;100315.63;10311497;28;20054;-55
2023/08/17 06:00:16;;;;;;;3.75;3.40;;;;;;;20.41;100.00;100314.56;10305765;28;20135;-55
2023/08/17 06:05:18;;;;;;;3.67;3.38;;;;;;;20.37;100.00;100318.69;10312540;28;20135;-56
2023/08/17 06:10:20;;;;;;;4.22;3.83;;;;;;;20.33;100.00;100314.69;10302845;28;20053;-59
2023/08/17 06:15:23;;;;;;;4.55;4.15;;;;;;;20.36;100.00;100327.00;10298923;28;20058;-56
2023/08/17 06:20:24;;;;;;;4.15;3.67;;;;;;;20.40;100.00;100329.13;10281673;28;20061;-55
2023/08/17 06:25:25;;;;;;;3.58;2.95;;;;;;;20.42;100.00;100327.06;10277845;28;20050;-55
2023/08/17 06:30:27;;;;;;;4.82;3.60;;;;;;;20.42;100.00;100337.06;10280932;28;20070;-55
2023/08/17 06:35:28;;;;;;;4.60;3.65;;;;;;;20.45;100.00;100337.50;10291351;28;20195;-54
2023/08/17 06:40:30;;;;;;;3.63;3.33;;;;;;;20.47;100.00;100332.75;10293806;28;20108;-55
2023/08/17 06:45:32;;;;;;;3.88;3.50;;;;;;;20.53;100.00;100322.22;10290196;28;20058;-55
2023/08/17 06:50:34;;;;;;;4.90;3.30;;;;;;;20.54;100.00;100323.91;10291377;28;20054;-55
2023/08/17 06:55:35;;;;;;;3.17;2.70;;;;;;;20.58;100.00;100315.22;10290769;28;20506;-55
2023/08/17 07:00:38;;;;;;;2.97;2.70;;;;;;;20.68;100.00;100314.13;10296677;28;20713;-55
2023/08/17 07:05:40;;;;;;;3.70;3.10;;;;;;;20.75;100.00;100321.31;10298220;28;20054;-58
2023/08/17 07:10:41;;;;;;;5.22;2.25;;;;;;;20.86;100.00;100316.44;10297692;28;20049;-56
2023/08/17 07:15:43;;;;;;;2.50;2.28;;;;;;;20.89;100.00;100326.88;10296412;28;20077;-55
2023/08/17 07:20:44;;;;;;;2.38;1.80;;;;;;;20.93;100.00;100329.00;10292995;28;20140;-55
2023/08/17 07:25:47;;;;;;;2.38;1.90;;;;;;;20.86;100.00;100338.09;10292532;28;20053;-55
2023/08/17 07:30:48;;;;;;;2.70;2.08;;;;;;;20.87;100.00;100334.31;10295266;28;20133;-56
2023/08/17 07:35:49;;;;;;;2.53;1.80;;;;;;;20.92;100.00;100335.44;10291209;28;20123;-55
2023/08/17 07:40:51;;;;;;;2.42;1.70;;;;;;;20.98;100.00;100328.44;10279373;28;20105;-55
2023/08/17 07:45:54;;;;;;;2.03;1.83;;;;;;;20.83;100.00;100340.13;10279974;28;20058;-55
2023/08/17 07:50:56;;;;;;;2.10;1.67;;;;;;;21.01;100.00;100347.00;10286818;28;20058;-55
2023/08/17 07:55:58;;;;;;;2.03;1.80;;;;;;;21.10;100.00;100348.56;10285840;28;20136;-55
2023/08/17 08:00:59;;;;;;;2.30;2.08;;;;;;;21.18;100.00;100348.47;10291072;28;20104;-55
2023/08/17 08:06:03;;;;;;;2.60;1.58;;;;;;;21.34;100.00;100343.84;10285977;28;20054;-56
2023/08/17 08:11:05;;;;;;;2.70;1.50;;;;;;;21.46;100.00;100339.59;10286275;28;20053;-55
2023/08/17 08:16:07;;;;;;;1.77;1.30;;;;;;;21.64;100.00;100341.88;10282636;28;20058;-56
2023/08/17 08:21:08;;;;;;;2.97;2.28;;;;;;;21.77;100.00;100345.72;10287798;28;20502;-55
2023/08/17 08:26:09;;;;;;;2.55;1.85;;;;;;;21.83;100.00;100334.97;10284135;28;20121;-56
2023/08/17 08:31:11;;;;;;;1.40;1.30;;;;;;;21.83;100.00;100332.25;10285112;28;20058;-55
2023/08/17 08:36:13;;;;;;;1.70;1.50;;;;;;;21.90;100.00;100332.28;10291519;28;20054;-57
2023/08/17 08:41:14;;;;;;;2.17;1.33;;;;;;;22.14;100.00;100335.59;10287968;28;20077;-56
2023/08/17 08:46:17;;;;;;;2.05;1.60;;;;;;;22.37;99.49;100336.22;10289709;28;21412;-56
2023/08/17 08:51:22;;;;;;;;;;;;;;;22.56;99.33;100329.25;10297946;28;20065;-55
2023/08/17 08:56:24;;;;;;;8.52;1.63;;;;;;;22.67;97.25;100325.13;10291945;28;20064;-56
2023/08/17 09:01:26;;;;;;;1.63;1.27;;;;;;;22.74;97.72;100325.13;10294670;28;20132;-55
2023/08/17 09:06:30;;;;;;;1.77;1.38;;;;;;;22.74;95.39;100333.28;10298605;28;20077;-56
2023/08/17 09:11:31;;;;;;;;;;;;;;;22.74;97.29;100331.44;10296647;28;20321;-55
2023/08/17 09:16:32;;;;;;;1.10;1.00;;;;;;;22.86;96.17;100330.84;10296745;28;20422;-55
2023/08/17 09:21:34;;;;;;;1.25;0.77;;;;;;;23.23;93.95;100315.13;10298824;28;20054;-56
2023/08/17 09:26:36;;;;;;;2.00;1.00;;;;;;;23.72;93.45;100305.78;10281594;28;20054;-56
2023/08/17 09:31:38;;;;;;;0.90;0.67;;;;;;;23.85;92.78;100310.41;10299429;28;20577;-55
2023/08/17 09:36:40;;;;;;;1.23;0.90;;;;;;;23.85;90.21;100323.13;10290716;28;20083;-56
2023/08/17 09:41:42;;;;;;;0.82;0.75;;;;;;;23.75;87.68;100310.81;10301072;28;20050;-55
2023/08/17 09:46:44;;;;;;;1.43;0.97;;;;;;;23.61;89.20;100318.09;10300491;28;20050;-56
2023/08/17 09:51:46;;;;;;;1.58;1.00;;;;;;;23.79;88.36;100319.34;10300693;28;20054;-55
2023/08/17 09:56:50;;;;;;;0.93;0.80;;;;;;;24.33;87.33;100312.00;10292897;28;20054;-56
2023/08/17 10:01:52;;;;;;;1.77;0.55;;;;;;;24.80;84.90;100298.28;10294996;28;20054;-55
2023/08/17 10:07:05;;;;;;;1.27;0.93;;;;;;;25.18;84.89;100292.84;10296745;28;20196;-55
2023/08/17 10:12:11;;;;;;;1.40;0.80;;;;;;;25.50;81.41;100289.31;10295879;28;20054;-55
2023/08/17 10:17:19;;;;;;;0.98;0.88;;;;;;;25.53;81.11;100284.22;10295135;28;20054;-56
2023/08/17 10:22:33;;;;;;;0.98;0.60;;;;;;;25.65;81.18;100289.81;10285343;28;20050;-55
2023/08/17 10:27:35;;;;;;;0.70;0.57;;;;;;;25.92;80.74;100284.13;10262372;28;20135;-56
2023/08/17 10:32:37;;;;;;;1.48;0.70;;;;;;;26.16;79.84;100289.81;10296193;28;20165;-55
2023/08/17 10:37:39;;;;;;;1.23;0.65;;;;;;;26.61;76.26;100278.59;10280032;28;20100;-55
2023/08/17 10:42:40;;;;;;;2.20;0.73;;;;;;;26.94;74.55;100288.28;10295474;28;20059;-57
2023/08/17 10:47:42;;;;;;;0.90;0.70;;;;;;;27.16;73.96;100280.41;10292840;28;20293;-60
2023/08/17 10:52:43;;;;;;;1.35;0.73;;;;;;;27.54;71.34;100272.91;10286817;28;20090;-57
2023/08/17 10:57:51;;;;;;;0.85;0.73;;;;;;;27.84;72.05;100281.03;10290331;28;20509;-57
2023/08/17 11:02:54;;;;;;;1.52;0.60;;;;;;;27.87;68.97;100286.84;10287765;28;20196;-57
2023/08/17 11:07:56;;;;;;;1.10;0.73;;;;;;;27.63;69.52;100285.19;10293878;28;20522;-56
2023/08/17 11:12:59;;;;;;;2.00;0.90;;;;;;;27.45;72.61;100289.66;10289409;28;20061;-56
2023/08/17 11:18:01;;;;;;;1.38;1.02;;;;;;;27.63;68.70;100290.63;10288296;28;20806;-57
2023/08/17 11:23:03;;;;;;;1.15;0.80;;;;;;;27.52;70.56;100290.38;10283251;28;20050;-57
2023/08/17 11:28:07;;;;;;;2.25;0.70;;;;;;;27.43;69.18;100280.88;10272965;28;21065;-57
2023/08/17 11:33:09;;;;;;;0.95;0.55;;;;;;;27.54;70.71;100271.00;10290329;28;20054;-57
2023/08/17 11:38:11;;;;;;;1.08;0.90;;;;;;;28.01;69.68;100279.28;10292399;28;20135;-57
2023/08/17 11:43:13;;;;;;;1.05;0.70;;;;;;;28.46;66.31;100272.28;10296246;28;20589;-58
2023/08/17 11:48:16;;;;;;;2.45;1.17;;;;;;;28.83;66.78;100271.16;10275405;28;20050;-57
2023/08/17 11:53:18;;;;;;;1.30;0.75;;;;;;;29.00;64.72;100265.72;10289978;28;20050;-57
2023/08/17 11:58:36;;;;;;;3.15;0.77;;;;;;;29.32;62.00;100262.47;10288318;28;20251;-57
2023/08/17 12:03:39;;;;;;;1.73;0.57;;;;;;;29.59;62.74;100257.16;10287203;28;20054;-58
2023/08/17 12:08:44;;;;;;;2.22;0.75;;;;;;;29.90;61.24;100257.69;10269814;28;20061;-57
2023/08/17 12:13:52;;;;;;;1.58;0.73;;;;;;;30.15;58.26;100254.47;10289198;28;20058;-57
2023/08/17 12:18:54;;;;;;;2.00;0.70;;;;;;;30.06;60.22;100253.25;10267800;28;20110;-57
2023/08/17 12:23:56;;;;;;;0.80;0.70;;;;;;;29.78;58.94;100255.00;10301327;28;20120;-57
2023/08/17 12:28:57;;;;;;;2.10;0.93;;;;;;;29.47;61.13;100254.53;10299681;28;20337;-57
2023/08/17 12:33:58;;;;;;;2.43;0.83;;;;;;;29.36;59.55;100258.97;10300813;28;20129;-57
2023/08/17 12:39:00;;;;;;;3.22;0.98;;;;;;;29.30;62.70;100256.41;10288134;28;20407;-57
2023/08/17 12:44:04;;;;;;;1.73;0.85;;;;;;;29.01;61.27;100259.19;10304010;28;20077;-57
2023/08/17 12:49:06;;;;;;;0.97;0.73;;;;;;;28.94;62.85;100264.78;10302976;28;20057;-57
2023/08/17 12:54:08;;;;;;;2.10;0.70;;;;;;;29.15;61.57;100263.25;10286528;28;21609;-58
2023/08/17 12:59:10;;;;;;;2.08;0.90;;;;;;;28.94;60.82;100258.50;10281907;28;20491;-58
2023/08/17 13:04:11;;;;;;;2.00;1.07;;;;;;;29.20;59.96;100262.50;10302004;28;20323;-57
2023/08/17 13:09:14;;;;;;;1.10;0.60;;;;;;;29.38;59.56;100272.44;10302531;28;20073;-58
2023/08/17 13:14:16;;;;;;;2.63;0.82;;;;;;;29.35;59.06;100257.34;10302912;28;20172;-58
2023/08/17 13:19:18;;;;;;;3.60;1.70;;;;;;;29.39;57.96;100257.66;10303485;28;20061;-58
2023/08/17 13:24:19;;;;;;;1.27;0.95;;;;;;;29.42;58.66;100246.19;10304430;28;20053;-58
2023/08/17 13:29:21;;;;;;;1.92;1.60;;;;;;;29.19;57.94;100234.28;10301123;28;20178;-58
2023/08/17 13:34:22;;;;;;;1.80;1.70;;;;;;;28.97;59.56;100233.34;10295685;28;20103;-58
2023/08/17 13:39:24;;;;;;;1.90;1.45;;;;;;;28.84;59.84;100216.13;10296805;28;20607;-57
2023/08/17 13:44:26;;;;;;;1.77;0.98;;;;;;;28.70;59.30;100217.50;10298529;28;21395;-58
2023/08/17 13:49:30;;;;;;;1.87;0.93;;;;;;;28.60;59.12;100206.34;10298376;28;20730;-58
2023/08/17 13:54:31;;;;;;;1.88;1.00;;;;;;;28.65;59.88;100195.50;10276429;28;20204;-58
2023/08/17 13:59:33;;;;;;;1.80;1.00;;;;;;;28.79;57.43;100188.63;10297245;28;20855;-60
2023/08/17 14:04:34;;;;;;;2.60;1.10;;;;;;;28.82;59.75;100185.41;10292872;28;20050;-58
2023/08/17 14:09:36;;;;;;;1.27;1.00;;;;;;;28.92;57.73;100187.50;10295424;28;20058;-58
2023/08/17 14:14:37;;;;;;;1.33;0.60;;;;;;;28.87;58.67;100182.78;10281660;28;20494;-58
2023/08/17 14:19:39;;;;;;;2.38;1.10;;;;;;;28.86;58.61;100172.88;10290138;28;20050;-56
2023/08/17 14:24:41;;;;;;;1.77;1.13;;;;;;;28.77;59.57;100168.91;10292942;28;20064;-56
2023/08/17 14:29:42;;;;;;;1.57;1.43;;;;;;;28.75;59.35;100160.09;10296286;28;20050;-56
2023/08/17 14:34:50;;;;;;;1.98;0.95;;;;;;;28.77;59.19;100146.16;10287689;28;20212;-55
2023/08/17 14:39:51;;;;;;;2.33;1.38;;;;;;;28.61;59.76;100139.56;10295221;28;20104;-57
2023/08/17 14:44:53;;;;;;;2.47;1.77;;;;;;;28.54;59.63;100136.97;10291359;28;20072;-56
2023/08/17 14:49:55;;;;;;;2.30;0.90;;;;;;;28.52;59.63;100123.50;10287969;28;20173;-57
2023/08/17 14:54:57;;;;;;;1.45;1.10;;;;;;;28.49;60.52;100118.50;10290584;28;20042;-56
2023/08/17 14:59:59;;;;;;;2.57;1.27;;;;;;;28.42;60.52;100115.13;10291511;28;20046;-57
2023/08/17 15:05:00;;;;;;;2.60;1.13;;;;;;;28.35;61.16;100108.97;10290092;28;20050;-56
2023/08/17 15:10:03;;;;;;;2.03;1.03;;;;;;;28.34;61.40;100088.13;10273043;28;20761;-57
2023/08/17 15:15:06;;;;;;;2.25;1.20;;;;;;;28.21;61.57;100073.69;10290101;28;20062;-57
2023/08/17 15:20:08;;;;;;;2.17;1.30;;;;;;;28.21;61.54;100065.47;10278852;28;20081;-57
2023/08/17 15:25:09;;;;;;;1.73;1.30;;;;;;;28.21;62.23;100059.19;10295739;28;20503;-57
2023/08/17 15:30:10;;;;;;;2.75;2.40;;;;;;;28.19;61.92;100053.94;10297745;23;20616;-57
2023/08/17 15:35:13;;;;;;;1.70;1.40;;;;;;;28.11;62.06;100050.78;10188518;28;20055;-56
2023/08/17 15:40:15;;;;;;;2.47;1.17;;;;;;;28.09;62.13;100061.97;10295858;28;20050;-57
2023/08/17 15:45:20;;;;;;;2.85;1.35;;;;;;;28.06;61.99;100072.53;10303554;28;20065;-57
2023/08/17 15:50:22;;;;;;;1.40;1.15;;;;;;;27.97;62.69;100066.63;10291364;28;20054;-56
2023/08/17 15:55:23;;;;;;;3.25;1.80;;;;;;;27.95;62.75;100069.56;10312598;28;20046;-57
2023/08/17 16:06:46;;;;;;;1.65;1.35;;;;;;;27.88;63.41;100079.84;10262558;28;20551;-54
2023/08/17 16:11:49;;;;;;;2.67;1.65;;;;;;;27.83;63.67;100083.31;10299998;28;20774;-54
2023/08/17 16:16:50;;;;;;;1.67;1.33;;;;;;;27.80;63.80;100089.25;10317395;28;20099;-55
2023/08/17 16:21:57;;;;;;;3.03;1.40;;;;;;;27.68;64.19;100077.50;10325056;28;20076;-56
2023/08/17 16:26:58;;;;;;;1.80;1.20;;;;;;;27.76;63.97;100096.28;10316158;28;20062;-55
2023/08/17 16:32:03;;;;;;;3.28;1.50;;;;;;;27.64;63.52;100090.84;10323043;28;20070;-54
2023/08/17 16:37:08;;;;;;;2.35;1.60;;;;;;;27.61;63.33;100093.19;10305848;28;20057;-55
2023/08/17 16:42:10;;;;;;;2.15;1.60;;;;;;;27.59;62.61;100120.78;10314975;28;20119;-55
2023/08/17 16:47:11;;;;;;;1.23;1.00;;;;;;;27.46;62.79;100116.41;10325957;28;20061;-55
2023/08/17 16:52:13;;;;;;;1.30;1.20;;;;;;;27.41;62.98;100119.00;10325776;28;20210;-55
2023/08/17 16:57:14;;;;;;;1.47;1.00;;;;;;;27.39;63.23;100129.34;10326470;28;20052;-55
2023/08/17 17:02:16;;;;;;;1.50;1.40;;;;;;;27.35;63.35;100136.34;10329866;28;20049;-54
2023/08/17 17:07:17;;;;;;;2.67;1.30;;;;;;;27.27;62.72;100142.16;10333005;28;20102;-55
2023/08/17 17:12:19;;;;;;;2.08;1.15;;;;;;;27.16;62.53;100130.97;10332230;28;20084;-55
2023/08/17 17:23:43;;;;;;;2.05;1.02;;;;;;;27.04;63.18;100121.94;10329887;28;20049;-56
2023/08/17 17:28:44;;;;;;;1.42;1.20;;;;;;;26.96;63.82;100111.34;10347909;28;20188;-55
2023/08/17 17:33:46;;;;;;;1.52;1.42;;;;;;;26.92;64.07;100116.47;10332750;28;20490;-55
2023/08/17 17:38:48;;;;;;;0.80;0.77;;;;;;;26.87;63.86;100113.59;10349024;28;20163;-55
2023/08/17 17:43:49;;;;;;;1.20;1.00;;;;;;;26.90;64.48;100120.50;10348301;28;20060;-55
2023/08/17 17:48:52;;;;;;;1.00;0.90;;;;;;;26.76;64.09;100106.22;10347598;28;20108;-54
2023/08/17 17:53:54;;;;;;;1.40;1.30;;;;;;;26.76;65.10;100109.78;10329311;28;20054;-54
2023/08/17 17:58:56;;;;;;;2.10;1.88;;;;;;;26.72;65.20;100107.75;10333604;28;20702;-55
2023/08/17 18:03:58;;;;;;;1.83;1.70;;;;;;;26.67;65.65;100113.91;10333176;28;20128;-55
2023/08/17 18:09:04;;;;;;;2.42;1.75;;;;;;;26.63;66.02;100119.00;10346616;28;20688;-55
2023/08/17 18:14:07;;;;;;;2.08;1.35;;;;;;;26.59;66.57;100133.34;10346579;28;20053;-55
2023/08/17 18:19:09;;;;;;;;;;;;;;;26.50;66.97;100135.56;10344547;28;20049;-55
2023/08/17 18:24:10;;;;;;;2.35;1.58;;;;;;;26.49;68.75;100141.25;10329709;28;19987;-55
2023/08/17 18:29:12;;;;;;;2.15;1.60;;;;;;;26.45;69.91;100138.97;10329549;28;20740;-54
2023/08/17 18:34:17;;;;;;;2.88;2.30;;;;;;;26.36;69.72;100129.47;10340878;28;20191;-55
2023/08/17 18:39:18;;;;;;;4.07;3.67;;;;;;;26.31;70.00;100142.94;10346637;28;20057;-55
2023/08/17 18:44:20;;;;;;;10.80;9.70;;;;;;;26.19;70.39;100137.41;10330728;28;20069;-55
2023/08/17 18:49:22;;;;;;;34.17;28.90;;;;;;;26.21;70.97;100159.00;10342375;28;20045;-56
2023/08/17 18:54:25;;;;;;;7.10;5.47;;;;;;;26.14;70.90;100174.63;10341555;28;20048;-56
2023/08/17 18:59:27;;;;;;;3.08;2.20;;;;;;;26.07;71.08;100181.00;10345371;28;20060;-56
2023/08/17 19:04:29;;;;;;;2.55;1.63;;;;;;;25.97;70.82;100182.56;10345566;28;21212;-56
2023/08/17 19:09:31;;;;;;;2.92;2.05;;;;;;;25.86;71.32;100192.31;10344673;28;20057;-55
2023/08/17 19:14:32;;;;;;;1.33;1.10;;;;;;;25.80;71.25;100201.41;10345777;28;20068;-56
2023/08/17 19:19:34;;;;;;;4.00;1.88;;;;;;;25.68;71.67;100198.59;10342360;28;20670;-55
2023/08/17 19:24:37;;;;;;;1.90;1.55;;;;;;;25.64;71.97;100197.38;10340434;28;20061;-56
2023/08/17 19:29:38;;;;;;;;;;;;;;;25.58;72.58;100204.53;10350826;28;20097;-55
2023/08/17 19:34:40;;;;;;;2.70;1.95;;;;;;;25.54;73.24;100200.63;10347434;28;19932;-55
2023/08/17 19:39:42;;;;;;;1.77;1.63;;;;;;;25.44;74.52;100198.38;10302136;28;20629;-55
2023/08/17 19:44:43;;;;;;;2.08;1.50;;;;;;;25.35;73.40;100186.94;10330710;28;20354;-55
2023/08/17 19:49:44;;;;;;;2.30;1.45;;;;;;;25.25;74.36;100189.28;10332047;28;20064;-54
2023/08/17 19:54:51;;;;;;;1.67;1.50;;;;;;;25.17;75.18;100189.56;10344479;28;20046;-54
2023/08/17 19:59:53;;;;;;;2.53;1.45;;;;;;;25.14;74.53;100192.72;10346070;28;20080;-55
2023/08/17 20:04:54;;;;;;;1.85;1.30;;;;;;;25.04;75.08;100176.88;10340743;28;20124;-55
2023/08/17 20:09:59;;;;;;;2.65;1.58;;;;;;;25.08;76.00;100193.63;10338240;28;20057;-55
2023/08/17 20:15:00;;;;;;;1.90;1.67;;;;;;;24.98;76.46;100184.06;10342347;28;20049;-55
2023/08/17 20:20:02;;;;;;;3.20;1.98;;;;;;;24.93;76.62;100192.03;10345899;28;20066;-57
2023/08/17 20:25:04;;;;;;;2.00;1.60;;;;;;;24.88;77.18;100200.03;10347233;28;20060;-55
2023/08/17 20:30:07;;;;;;;1.73;1.60;;;;;;;24.77;78.03;100190.69;10343854;28;20075;-56
2023/08/17 20:35:09;;;;;;;;;;;;;;;24.78;78.71;100194.22;10344447;28;20045;-56
2023/08/17 20:40:11;;;;;;;2.22;1.98;;;;;;;24.68;78.55;100201.00;10341481;28;19940;-55
2023/08/17 20:45:12;;;;;;;2.17;1.73;;;;;;;24.66;79.39;100192.19;10355190;28;20132;-55
2023/08/17 20:50:14;;;;;;;2.10;1.90;;;;;;;24.69;79.96;100191.75;10353196;28;20061;-55
2023/08/17 20:55:15;;;;;;;2.75;2.15;;;;;;;24.69;79.43;100199.91;10341400;28;20058;-55
2023/08/17 21:00:18;;;;;;;3.63;2.42;;;;;;;24.69;79.82;100196.38;10353628;28;20148;-55
2023/08/17 21:05:20;;;;;;;2.38;2.17;;;;;;;24.52;79.06;100190.59;10353255;28;20510;-55
2023/08/17 21:10:21;;;;;;;3.10;2.80;;;;;;;24.37;79.72;100181.88;10350217;28;20131;-55
2023/08/17 21:15:23;;;;;;;2.25;1.90;;;;;;;24.29;80.65;100181.06;10319626;28;20061;-42
2023/08/17 21:20:24;;;;;;;2.92;1.88;;;;;;;24.34;80.71;100180.41;10352027;28;20053;-43
2023/08/17 21:25:26;;;;;;;1.95;1.85;;;;;;;24.39;81.09;100179.75;10351016;28;21021;-43
2023/08/17 21:30:27;;;;;;;2.42;2.15;;;;;;;24.38;81.70;100176.22;10352258;28;20056;-43
2023/08/17 21:35:29;;;;;;;3.03;2.30;;;;;;;24.41;81.85;100178.50;10354083;28;20172;-43
2023/08/17 21:40:30;;;;;;;2.38;2.17;;;;;;;24.38;82.55;100178.94;10330176;28;20057;-43
2023/08/17 21:45:32;;;;;;;4.25;2.30;;;;;;;24.38;81.91;100184.38;10346646;28;20077;-44
2023/08/17 21:50:36;;;;;;;2.65;2.28;;;;;;;24.34;82.03;100159.47;10350978;28;20134;-43
2023/08/17 21:55:43;;;;;;;3.45;2.33;;;;;;;24.31;84.42;100154.47;10347513;28;20454;-42
2023/08/17 22:00:46;;;;;;;2.35;2.15;;;;;;;24.28;82.84;100163.06;10349286;28;20137;-43
2023/08/17 22:05:47;;;;;;;2.60;2.30;;;;;;;24.22;82.40;100157.66;10351117;28;20084;-42
2023/08/17 22:10:49;;;;;;;2.65;2.45;;;;;;;24.13;82.35;100157.06;10350680;28;20056;-43
2023/08/17 22:15:50;;;;;;;2.13;1.92;;;;;;;24.13;85.04;100157.06;10346361;28;21151;-43
2023/08/17 22:20:52;;;;;;;3.70;2.40;;;;;;;24.15;84.11;100155.78;10347363;28;20072;-44
2023/08/17 22:25:53;;;;;;;2.85;2.00;;;;;;;24.10;83.99;100155.59;10349947;28;20236;-42
2023/08/17 22:31:05;;;;;;;2.42;2.22;;;;;;;24.08;83.93;100151.44;10337161;28;20133;-44
2023/08/17 22:36:06;;;;;;;2.88;2.30;;;;;;;24.06;83.00;100158.97;10345384;28;20774;-47
2023/08/17 22:41:08;;;;;;;2.90;2.40;;;;;;;23.98;83.85;100155.44;10343270;28;20103;-48
2023/08/17 22:46:09;;;;;;;2.72;2.53;;;;;;;23.86;83.14;100154.44;10348286;28;20066;-48
2023/08/17 22:51:13;;;;;;;2.97;2.47;;;;;;;23.65;83.23;100148.19;10345173;28;20057;-49
2023/08/17 22:56:15;;;;;;;3.90;2.17;;;;;;;23.64;85.51;100151.97;10349920;28;20568;-49
2023/08/17 23:01:16;;;;;;;2.38;2.17;;;;;;;23.73;85.34;100162.59;10340778;28;20427;-49
2023/08/17 23:06:18;;;;;;;3.65;2.63;;;;;;;23.62;83.77;100156.75;10327523;28;20063;-48
2023/08/17 23:11:20;;;;;;;3.27;2.93;;;;;;;23.56;85.91;100159.50;10342154;28;20065;-49
2023/08/17 23:16:21;;;;;;;3.30;2.67;;;;;;;23.57;84.63;100170.16;10339209;28;20156;-48